createdAt,value
2023-01-29T00:01:43.405Z,101863.25
2023-01-29T00:04:15.058Z,101874.44
2023-01-29T00:06:45.548Z,101883.09
2023-01-29T00:09:16.159Z,101889.44
2023-01-29T00:11:46.419Z,101898.28
2023-01-29T00:14:16.217Z,101897.72
2023-01-29T00:16:46.967Z,101897.06
2023-01-29T00:19:18.819Z,101893.84
2023-01-29T00:24:44.865Z,101907.56
2023-01-29T00:27:15.067Z,101908.47
2023-01-29T00:30:02.795Z,101902.66
2023-01-29T00:32:33.879Z,101899.22
2023-01-29T00:35:05.273Z,101899.34
2023-01-29T00:37:36.852Z,101866.16
2023-01-29T00:40:07.359Z,101906.81
2023-01-29T00:42:54.737Z,101907.63
2023-01-29T00:45:24.692Z,101897.91
2023-01-29T00:47:54.857Z,101903.25
2023-01-29T00:50:26.234Z,101901.41
2023-01-29T00:52:56.595Z,101903.31
2023-01-29T00:55:26.824Z,101916.28
2023-01-29T00:57:57.823Z,101928.72
2023-01-29T01:00:27.856Z,101920.16
2023-01-29T01:03:06.225Z,101930.44
2023-01-29T01:05:39.486Z,101924.31
2023-01-29T01:08:30.126Z,101919.63
2023-01-29T01:10:59.479Z,101921.34
2023-01-29T01:13:29.724Z,101914.09
2023-01-29T01:16:00.503Z,101915.81
2023-01-29T01:18:31.676Z,101917.53
2023-01-29T01:21:03.126Z,101920.81
2023-01-29T01:23:33.655Z,101912.09
2023-01-29T01:26:03.475Z,101911.88
2023-01-29T01:28:35.251Z,101908.47
2023-01-29T01:31:10.326Z,101909.94
2023-01-29T01:33:41.177Z,101906.16
2023-01-29T01:36:14.086Z,101906.09
2023-01-29T01:38:45.895Z,101897.31
2023-01-29T01:41:17.047Z,101897.25
2023-01-29T01:43:49.679Z,101896.25
2023-01-29T01:46:19.923Z,101889.38
2023-01-29T01:48:53.624Z,101882.19
2023-01-29T01:51:26.266Z,101881.31
2023-01-29T01:53:59.577Z,101867.22
2023-01-29T01:56:38.745Z,101872.34
2023-01-29T01:59:11.819Z,101868.84
2023-01-29T02:01:43.550Z,101869.91
2023-01-29T02:04:35.481Z,101866.22
2023-01-29T02:07:26.443Z,101854.06
2023-01-29T02:10:02.384Z,101847.00
2023-01-29T02:12:32.393Z,101835.00
2023-01-29T02:15:03.623Z,101831.50
2023-01-29T02:17:34.376Z,101840.13
2023-01-29T02:20:07.721Z,101834.91
2023-01-29T02:23:03.841Z,101827.09
2023-01-29T02:25:59.600Z,101827.03
2023-01-29T02:28:39.773Z,101821.81
2023-01-29T02:31:15.040Z,101815.75
2023-01-29T02:33:50.277Z,101815.75
2023-01-29T02:36:24.578Z,101807.03
2023-01-29T02:39:01.313Z,101800.94
2023-01-29T02:41:35.444Z,101799.44
2023-01-29T02:44:09.453Z,101795.16
2023-01-29T02:46:43.226Z,101798.59
2023-01-29T02:49:17.013Z,101804.78
2023-01-29T02:51:52.487Z,101800.56
2023-01-29T02:54:23.377Z,101804.94
2023-01-29T02:56:55.633Z,101805.16
2023-01-29T02:59:30.179Z,101797.47
2023-01-29T03:02:03.732Z,101794.78
2023-01-29T03:04:35.817Z,101796.63
2023-01-29T03:07:10.471Z,101805.50
2023-01-29T03:09:43.647Z,101802.19
2023-01-29T03:12:29.423Z,101807.53
2023-01-29T03:15:15.409Z,101808.34
2023-01-29T03:17:56.340Z,101821.59
2023-01-29T03:20:32.624Z,101817.47
2023-01-29T03:23:07.002Z,101814.81
2023-01-29T03:25:55.544Z,101801.88
2023-01-29T03:28:46.941Z,101799.13
2023-01-29T03:31:37.292Z,101787.72
2023-01-29T03:34:10.462Z,101765.81
2023-01-29T03:36:47.184Z,101769.31
2023-01-29T03:39:19.070Z,101759.63
2023-01-29T03:41:50.967Z,101765.66
2023-01-29T03:44:26.762Z,101758.75
2023-01-29T03:46:59.135Z,101763.03
2023-01-29T03:49:33.767Z,101763.03
2023-01-29T03:52:06.354Z,101750.81
2023-01-29T03:54:45.316Z,101751.78
2023-01-29T03:57:19.207Z,101750.06
2023-01-29T03:59:55.654Z,101747.38
2023-01-29T04:02:53.275Z,101746.56
2023-01-29T04:05:26.574Z,101731.59
2023-01-29T04:08:12.146Z,101725.41
2023-01-29T04:10:44.991Z,101727.94
2023-01-29T04:13:15.470Z,101724.44
2023-01-29T04:15:49.150Z,101726.22
2023-01-29T04:18:21.586Z,101714.88
2023-01-29T04:21:07.744Z,101728.81
2023-01-29T04:23:38.603Z,101726.31
2023-01-29T04:26:23.060Z,101737.63
2023-01-29T04:28:59.367Z,101730.69
2023-01-29T04:31:34.376Z,101720.97
2023-01-29T04:34:13.777Z,101710.53
2023-01-29T04:36:50.512Z,101695.59
2023-01-29T04:39:22.576Z,101700.81
2023-01-29T04:41:55.527Z,101702.66
2023-01-29T04:44:35.551Z,101700.03
2023-01-29T04:47:07.609Z,101693.94
2023-01-29T04:49:45.208Z,101701.75
2023-01-29T04:52:18.610Z,101684.53
2023-01-29T04:54:53.259Z,101676.75
2023-01-29T04:57:27.475Z,101690.69
2023-01-29T04:59:59.798Z,101686.38
2023-01-29T05:02:30.548Z,101670.75
2023-01-29T05:05:02.130Z,101669.19
2023-01-29T05:07:32.742Z,101660.59
2023-01-29T05:10:02.795Z,101644.19
2023-01-29T05:12:33.092Z,101640.78
2023-01-29T05:15:03.764Z,101641.84
2023-01-29T05:17:33.894Z,101651.44
2023-01-29T05:20:07.870Z,101654.06
2023-01-29T05:22:38.866Z,101641.94
2023-01-29T05:25:21.337Z,101645.50
2023-01-29T05:28:06.820Z,101650.72
2023-01-29T05:30:38.059Z,101645.59
2023-01-29T05:33:13.610Z,101645.59
2023-01-29T05:35:44.727Z,101644.56
2023-01-29T05:38:15.065Z,101629.72
2023-01-29T05:40:45.267Z,101634.13
2023-01-29T05:43:19.158Z,101632.41
2023-01-29T05:45:53.832Z,101639.50
2023-01-29T05:48:24.174Z,101634.28
2023-01-29T05:50:55.290Z,101635.16
2023-01-29T05:53:25.226Z,101637.78
2023-01-29T05:55:57.397Z,101633.50
2023-01-29T05:58:27.435Z,101632.59
2023-01-29T06:00:57.118Z,101624.09
2023-01-29T06:03:27.541Z,101631.09
2023-01-29T06:05:58.817Z,101639.88
2023-01-29T06:08:28.885Z,101627.75
2023-01-29T06:10:58.458Z,101634.59
2023-01-29T06:13:28.484Z,101630.38
2023-01-29T06:15:58.320Z,101632.09
2023-01-29T06:18:28.501Z,101627.75
2023-01-29T06:21:03.930Z,101622.53
2023-01-29T06:23:34.324Z,101629.53
2023-01-29T06:26:04.347Z,101627.94
2023-01-29T06:28:35.069Z,101624.44
2023-01-29T06:31:23.761Z,101635.84
2023-01-29T06:33:57.129Z,101632.50
2023-01-29T06:36:28.421Z,101626.44
2023-01-29T06:39:00.977Z,101628.28
2023-01-29T06:41:31.148Z,101625.59
2023-01-29T06:44:01.652Z,101623.81
2023-01-29T06:46:31.867Z,101626.53
2023-01-29T06:49:02.612Z,101618.72
2023-01-29T06:51:34.156Z,101617.19
2023-01-29T06:54:04.629Z,101623.44
2023-01-29T06:56:35.085Z,101623.34
2023-01-29T06:59:06.366Z,101613.72
2023-01-29T07:01:36.935Z,101612.22
2023-01-29T07:04:07.608Z,101608.81
2023-01-29T07:06:39.649Z,101607.13
2023-01-29T07:09:13.742Z,101602.84
2023-01-29T07:11:43.961Z,101598.81
2023-01-29T07:14:14.508Z,101602.56
2023-01-29T07:16:44.960Z,101604.47
2023-01-29T07:19:15.165Z,101592.16
2023-01-29T07:21:46.806Z,101588.06
2023-01-29T07:24:17.495Z,101593.66
2023-01-29T07:26:47.226Z,101583.41
2023-01-29T07:29:18.238Z,101587.06
2023-01-29T07:31:48.072Z,101582.94
2023-01-29T07:34:18.401Z,101574.31
2023-01-29T07:36:49.647Z,101577.13
2023-01-29T07:39:20.448Z,101568.78
2023-01-29T07:41:50.371Z,101565.47
2023-01-29T07:44:20.763Z,101559.25
2023-01-29T07:46:50.704Z,101557.50
2023-01-29T07:49:20.945Z,101557.63
2023-01-29T07:51:52.319Z,101563.69
2023-01-29T07:54:22.873Z,101563.75
2023-01-29T07:56:52.660Z,101561.16
2023-01-29T07:59:23.038Z,101561.97
2023-01-29T08:01:53.296Z,101556.50
2023-01-29T08:04:23.890Z,101561.56
2023-01-29T08:06:55.567Z,101552.88
2023-01-29T08:09:26.070Z,101541.63
2023-01-29T08:11:56.153Z,101548.56
2023-01-29T08:14:26.771Z,101542.44
2023-01-29T08:16:56.637Z,101545.16
2023-01-29T08:19:30.452Z,101534.00
2023-01-29T08:22:02.763Z,101535.41
2023-01-29T08:24:47.395Z,101536.53
2023-01-29T08:27:22.504Z,101530.84
2023-01-29T08:29:52.846Z,101537.19
2023-01-29T08:32:22.629Z,101543.44
2023-01-29T08:34:53.023Z,101541.94
2023-01-29T08:37:24.505Z,101541.38
2023-01-29T08:39:54.888Z,101532.88
2023-01-29T08:42:24.643Z,101527.69
2023-01-29T08:44:54.735Z,101534.75
2023-01-29T08:47:26.622Z,101539.31
2023-01-29T08:49:58.893Z,101543.09
2023-01-29T08:52:30.772Z,101540.69
2023-01-29T08:55:01.121Z,101536.59
2023-01-29T08:57:33.279Z,101543.75
2023-01-29T09:00:05.054Z,101536.03
2023-01-29T09:02:37.356Z,101533.50
2023-01-29T09:05:09.800Z,101520.50
2023-01-29T09:07:41.371Z,101522.38
2023-01-29T09:10:12.781Z,101524.88
2023-01-29T09:12:42.566Z,101528.47
2023-01-29T09:15:13.318Z,101519.59
2023-01-29T09:17:44.569Z,101521.50
2023-01-29T09:20:14.924Z,101518.72
2023-01-29T09:22:46.291Z,101524.13
2023-01-29T09:25:16.930Z,101517.28
2023-01-29T09:27:46.887Z,101513.91
2023-01-29T09:30:17.138Z,101524.56
2023-01-29T09:32:54.818Z,101528.91
2023-01-29T09:35:25.644Z,101518.41
2023-01-29T09:37:57.319Z,101527.91
2023-01-29T09:40:30.505Z,101526.16
2023-01-29T09:43:03.993Z,101526.97
2023-01-29T09:45:34.631Z,101520.69
2023-01-29T09:48:15.507Z,101520.75
2023-01-29T09:50:51.223Z,101518.97
2023-01-29T09:53:25.377Z,101512.94
2023-01-29T09:55:59.195Z,101498.09
2023-01-29T09:58:30.857Z,101497.28
2023-01-29T10:01:04.740Z,101500.75
2023-01-29T10:03:45.353Z,101496.38
2023-01-29T10:06:23.557Z,101488.47
2023-01-29T10:09:04.598Z,101486.69
2023-01-29T10:11:40.833Z,101479.75
2023-01-29T10:14:17.483Z,101487.63
2023-01-29T10:16:54.693Z,101481.34
2023-01-29T10:19:37.249Z,101476.94
2023-01-29T10:22:14.000Z,101483.06
2023-01-29T10:24:53.255Z,101478.56
2023-01-29T10:27:24.215Z,101479.22
2023-01-29T10:30:05.291Z,101471.47
2023-01-29T10:32:40.712Z,101463.53
2023-01-29T10:35:19.083Z,101459.94
2023-01-29T10:37:49.250Z,101463.38
2023-01-29T10:40:23.018Z,101449.34
2023-01-29T10:42:59.333Z,101445.25
2023-01-29T10:45:32.015Z,101446.19
2023-01-29T10:48:09.595Z,101442.91
2023-01-29T10:50:49.254Z,101442.25
2023-01-29T10:53:35.073Z,101433.72
2023-01-29T10:56:22.207Z,101440.19
2023-01-29T10:58:55.780Z,101426.91
2023-01-29T11:01:27.178Z,101414.66
2023-01-29T11:03:59.903Z,101418.09
2023-01-29T11:06:31.490Z,101417.97
2023-01-29T11:09:08.572Z,101410.22
2023-01-29T11:11:42.810Z,101403.19
2023-01-29T11:14:15.004Z,101400.09
2023-01-29T11:16:46.024Z,101397.69
2023-01-29T11:19:17.168Z,101397.75
2023-01-29T11:21:54.662Z,101387.50
2023-01-29T11:24:24.783Z,101375.97
2023-01-29T11:26:57.672Z,101376.03
2023-01-29T11:29:38.674Z,101365.38
2023-01-29T11:32:09.278Z,101365.34
2023-01-29T11:34:58.068Z,101364.53
2023-01-29T11:37:39.430Z,101366.44
2023-01-29T11:40:33.400Z,101363.91
2023-01-29T11:43:18.184Z,101356.00
2023-01-29T11:45:51.777Z,101362.16
2023-01-29T11:48:23.037Z,101363.88
2023-01-29T11:50:54.170Z,101361.19
2023-01-29T11:53:36.401Z,101352.47
2023-01-29T11:56:16.003Z,101357.09
2023-01-29T11:58:46.960Z,101315.97
2023-01-29T12:01:20.368Z,101362.94
2023-01-29T12:03:54.114Z,101367.09
2023-01-29T12:06:25.540Z,101384.34
2023-01-29T12:08:57.272Z,101365.72
2023-01-29T12:11:29.813Z,101363.94
2023-01-29T12:14:01.220Z,101364.66
2023-01-29T12:16:35.683Z,101359.38
2023-01-29T12:19:08.982Z,101350.84
2023-01-29T12:21:46.992Z,101354.38
2023-01-29T12:24:24.828Z,101344.66
2023-01-29T12:26:57.926Z,101327.09
2023-01-29T12:29:35.357Z,101321.84
2023-01-29T12:32:14.048Z,101317.44
2023-01-29T12:34:47.294Z,101307.94
2023-01-29T12:37:22.010Z,101296.28
2023-01-29T12:39:52.970Z,101302.50
2023-01-29T12:42:24.256Z,101295.53
2023-01-29T12:44:56.514Z,101301.69
2023-01-29T12:47:30.800Z,101286.84
2023-01-29T12:50:04.769Z,101286.00
2023-01-29T12:52:40.151Z,101285.94
2023-01-29T12:55:13.397Z,101280.66
2023-01-29T12:57:47.610Z,101268.50
2023-01-29T13:00:19.841Z,101273.75
2023-01-29T13:02:56.210Z,101268.53
2023-01-29T13:05:27.983Z,101261.44
2023-01-29T13:08:00.595Z,101257.06
2023-01-29T13:10:32.324Z,101250.91
2023-01-29T13:13:06.536Z,101238.75
2023-01-29T13:15:39.054Z,101246.44
2023-01-29T13:18:22.980Z,101241.19
2023-01-29T13:20:57.247Z,101248.06
2023-01-29T13:23:32.749Z,101250.69
2023-01-29T13:26:02.779Z,101253.31
2023-01-29T13:28:33.318Z,101253.28
2023-01-29T13:31:13.537Z,101248.84
2023-01-29T13:33:53.516Z,101245.28
2023-01-29T13:36:26.975Z,101247.97
2023-01-29T13:39:00.509Z,101237.50
2023-01-29T13:41:57.153Z,101236.69
2023-01-29T13:44:30.213Z,101232.47
2023-01-29T13:47:01.823Z,101231.41
2023-01-29T13:49:36.261Z,101219.03
2023-01-29T13:52:22.977Z,101235.66
2023-01-29T13:54:55.608Z,101239.94
2023-01-29T13:57:36.755Z,101243.47
2023-01-29T14:00:07.526Z,101244.50
2023-01-29T14:02:37.521Z,101239.16
2023-01-29T14:05:26.066Z,101248.78
2023-01-29T14:07:59.642Z,101252.16
2023-01-29T14:10:31.455Z,101245.97
2023-01-29T14:13:18.332Z,101252.25
2023-01-29T14:16:12.895Z,101245.00
2023-01-29T14:18:47.936Z,101254.78
2023-01-29T14:21:24.218Z,101241.56
2023-01-29T14:23:56.515Z,101249.38
2023-01-29T14:26:29.641Z,101233.69
2023-01-29T14:29:01.745Z,101241.53
2023-01-29T14:31:38.919Z,101245.00
2023-01-29T14:34:15.796Z,101241.44
2023-01-29T14:36:47.172Z,101240.50
2023-01-29T14:39:26.882Z,101231.81
2023-01-29T14:41:57.670Z,101223.06
2023-01-29T14:44:46.006Z,101225.72
2023-01-29T14:47:20.555Z,101225.78
2023-01-29T14:49:51.268Z,101229.28
2023-01-29T14:52:23.377Z,101227.56
2023-01-29T14:54:55.635Z,101214.34
2023-01-29T14:57:26.402Z,101213.59
2023-01-29T14:59:58.266Z,101211.78
2023-01-29T15:02:35.389Z,101210.88
2023-01-29T15:05:06.868Z,101210.94
2023-01-29T15:07:38.817Z,101203.94
2023-01-29T15:10:22.701Z,101205.69
2023-01-29T15:12:58.403Z,101199.66
2023-01-29T15:15:34.093Z,101204.81
2023-01-29T15:18:06.955Z,101194.28
2023-01-29T15:20:37.800Z,101189.97
2023-01-29T15:23:22.851Z,101176.94
2023-01-29T15:25:56.130Z,101175.03
2023-01-29T15:28:26.651Z,101168.78
2023-01-29T15:30:57.346Z,101175.84
2023-01-29T15:33:28.324Z,101169.78
2023-01-29T15:36:06.733Z,101166.22
2023-01-29T15:38:37.818Z,101166.28
2023-01-29T15:41:19.253Z,101166.41
2023-01-29T15:43:51.558Z,101158.56
2023-01-29T15:46:23.628Z,101155.94
2023-01-29T15:48:54.997Z,101153.47
2023-01-29T15:51:26.766Z,101150.88
2023-01-29T15:53:58.151Z,101156.09
2023-01-29T15:56:31.005Z,101143.00
2023-01-29T15:59:09.358Z,101157.00
2023-01-29T16:01:41.169Z,101152.63
2023-01-29T16:04:15.949Z,101154.38
2023-01-29T16:06:45.824Z,101152.63
2023-01-29T16:09:19.085Z,101136.94
2023-01-29T16:11:50.847Z,101142.97
2023-01-29T16:14:22.048Z,101137.66
2023-01-29T16:16:52.902Z,101140.22
2023-01-29T16:19:24.772Z,101136.69
2023-01-29T16:21:58.351Z,101140.94
2023-01-29T16:24:29.086Z,101133.03
2023-01-29T16:27:05.286Z,101133.78
2023-01-29T16:29:37.636Z,101143.25
2023-01-29T16:32:14.475Z,101137.06
2023-01-29T16:34:45.902Z,101134.47
2023-01-29T16:37:22.997Z,101131.75
2023-01-29T16:39:53.996Z,101132.59
2023-01-29T16:42:27.066Z,101127.38
2023-01-29T16:45:09.086Z,101120.38
2023-01-29T16:47:41.805Z,101123.03
2023-01-29T16:50:28.954Z,101116.91
2023-01-29T16:53:02.554Z,101111.63
2023-01-29T16:55:39.842Z,101112.56
2023-01-29T16:58:17.221Z,101102.88
2023-01-29T17:00:53.569Z,101091.53
2023-01-29T17:03:29.015Z,101092.38
2023-01-29T17:06:12.974Z,101099.31
2023-01-29T17:08:47.682Z,101102.72
2023-01-29T17:11:26.664Z,101093.03
2023-01-29T17:13:59.213Z,101089.50
2023-01-29T17:16:31.866Z,101081.63
2023-01-29T17:19:03.224Z,101085.97
2023-01-29T17:22:01.055Z,101083.28
2023-01-29T17:24:53.858Z,101076.31
2023-01-29T17:27:34.123Z,101038.84
2023-01-29T17:30:08.535Z,101082.31
2023-01-29T17:32:43.933Z,101071.81
2023-01-29T17:35:17.130Z,101061.31
2023-01-29T17:37:47.652Z,101063.03
2023-01-29T17:40:23.178Z,101055.94
2023-01-29T17:42:53.205Z,101046.31
2023-01-29T17:45:24.374Z,101048.09
2023-01-29T17:47:54.471Z,101039.38
2023-01-29T17:50:25.014Z,101034.97
2023-01-29T17:52:55.137Z,101028.06
2023-01-29T17:55:25.045Z,101020.19
2023-01-29T17:57:55.666Z,101014.09
2023-01-29T18:00:27.195Z,101008.91
2023-01-29T18:02:58.314Z,101005.41
2023-01-29T18:05:28.126Z,100995.81
2023-01-29T18:07:58.335Z,100991.41
2023-01-29T18:10:30.716Z,100991.41
2023-01-29T18:13:00.993Z,100982.72
2023-01-29T18:15:32.176Z,100974.03
2023-01-29T18:18:02.303Z,100975.75
2023-01-29T18:20:37.558Z,100977.53
2023-01-29T18:23:15.071Z,100973.13
2023-01-29T18:25:46.670Z,100971.41
2023-01-29T18:28:17.933Z,100963.53
2023-01-29T18:30:49.909Z,100967.03
2023-01-29T18:33:20.534Z,100959.22
2023-01-29T18:35:50.259Z,100953.97
2023-01-29T18:38:20.940Z,100943.50
2023-01-29T18:40:50.691Z,100960.22
2023-01-29T18:43:20.986Z,100941.91
2023-01-29T18:45:52.814Z,100942.78
2023-01-29T18:48:23.100Z,100935.84
2023-01-29T18:50:52.676Z,100927.09
2023-01-29T18:53:22.884Z,100920.09
2023-01-29T18:55:56.563Z,100914.94
2023-01-29T18:58:33.556Z,100910.53
2023-01-29T19:01:10.111Z,100906.22
2023-01-29T19:03:40.746Z,100906.38
2023-01-29T19:06:12.170Z,100892.47
2023-01-29T19:08:45.297Z,100893.38
2023-01-29T19:11:15.071Z,100888.13
2023-01-29T19:13:45.599Z,100877.59
2023-01-29T19:16:16.774Z,100882.88
2023-01-29T19:18:47.626Z,100879.38
2023-01-29T19:21:17.873Z,100874.09
2023-01-29T19:23:47.958Z,100865.28
2023-01-29T19:26:17.795Z,100860.13
2023-01-29T19:28:47.841Z,100864.41
2023-01-29T19:31:19.025Z,100857.44
2023-01-29T19:33:49.319Z,100851.25
2023-01-29T19:36:19.195Z,100858.25
2023-01-29T19:38:50.460Z,100845.25
2023-01-29T19:41:20.428Z,100845.19
2023-01-29T19:43:50.909Z,100841.72
2023-01-29T19:46:23.368Z,100838.22
2023-01-29T19:48:55.342Z,100829.53
2023-01-29T19:51:26.584Z,100835.59
2023-01-29T19:53:57.813Z,100827.75
2023-01-29T19:56:27.822Z,100821.63
2023-01-29T19:58:58.766Z,100815.44
2023-01-29T20:01:30.838Z,100811.00
2023-01-29T20:04:01.023Z,100810.13
2023-01-29T20:06:32.641Z,100804.84
2023-01-29T20:09:06.103Z,100794.38
2023-01-29T20:11:37.351Z,100787.31
2023-01-29T20:14:07.523Z,100775.94
2023-01-29T20:16:38.833Z,100770.72
2023-01-29T20:19:14.153Z,100762.91
2023-01-29T20:21:49.174Z,100763.81
2023-01-29T20:24:19.498Z,100753.31
2023-01-29T20:26:49.180Z,100760.34
2023-01-29T20:29:19.527Z,100759.47
2023-01-29T20:31:51.345Z,100751.63
2023-01-29T20:34:21.520Z,100753.38
2023-01-29T20:36:51.930Z,100743.75
2023-01-29T20:39:21.860Z,100737.56
2023-01-29T20:41:51.541Z,100733.25
2023-01-29T20:44:23.499Z,100738.53
2023-01-29T20:46:55.143Z,100727.28
2023-01-29T20:49:25.178Z,100728.19
2023-01-29T20:51:55.909Z,100712.47
2023-01-29T20:54:26.119Z,100709.88
2023-01-29T20:56:58.600Z,100711.69
2023-01-29T20:59:30.902Z,100701.16
2023-01-29T21:02:02.162Z,100709.97
2023-01-29T21:04:32.820Z,100712.59
2023-01-29T21:07:02.517Z,100696.00
2023-01-29T21:09:34.797Z,100705.72
2023-01-29T21:12:08.541Z,100692.66
2023-01-29T21:14:39.255Z,100690.91
2023-01-29T21:17:11.569Z,100677.81
2023-01-29T21:19:43.680Z,100678.75
2023-01-29T21:22:16.018Z,100681.41
2023-01-29T21:24:47.271Z,100674.34
2023-01-29T21:27:18.919Z,100669.97
2023-01-29T21:29:50.861Z,100662.09
2023-01-29T21:32:22.328Z,100657.97
2023-01-29T21:34:53.525Z,100650.97
2023-01-29T21:37:24.184Z,100656.22
2023-01-29T21:39:56.970Z,100651.88
2023-01-29T21:42:46.958Z,100644.88
2023-01-29T21:45:18.326Z,100634.38
2023-01-29T21:47:50.119Z,100616.88
2023-01-29T21:50:25.261Z,100601.16
2023-01-29T21:52:56.937Z,100604.78
2023-01-29T21:55:28.539Z,100605.56
2023-01-29T21:57:59.870Z,100599.44
2023-01-29T22:00:32.098Z,100595.00
2023-01-29T22:03:04.819Z,100606.34
2023-01-29T22:05:35.402Z,100608.03
2023-01-29T22:08:05.235Z,100603.69
2023-01-29T22:10:36.772Z,100607.09
2023-01-29T22:13:06.554Z,100594.03
2023-01-29T22:15:36.605Z,100582.63
2023-01-29T22:18:07.900Z,100579.16
2023-01-29T22:20:38.152Z,100580.00
2023-01-29T22:23:07.977Z,100570.41
2023-01-29T22:25:38.040Z,100568.69
2023-01-29T22:28:08.459Z,100549.50
2023-01-29T22:30:38.708Z,100536.34
2023-01-29T22:33:10.840Z,100537.22
2023-01-29T22:35:40.950Z,100521.53
2023-01-29T22:38:10.631Z,100511.88
2023-01-29T22:40:40.851Z,100515.41
2023-01-29T22:43:10.579Z,100503.16
2023-01-29T22:45:42.399Z,100498.75
2023-01-29T22:48:15.222Z,100491.69
2023-01-29T22:50:53.290Z,100482.09
2023-01-29T22:53:22.906Z,100486.41
2023-01-29T22:55:56.182Z,100469.78
2023-01-29T22:58:30.380Z,100475.00
2023-01-29T23:01:01.923Z,100459.22
2023-01-29T23:03:33.034Z,100441.69
2023-01-29T23:06:03.388Z,100431.22
2023-01-29T23:08:34.054Z,100432.94
2023-01-29T23:11:14.689Z,100426.03
2023-01-29T23:13:46.107Z,100415.50
2023-01-29T23:16:17.739Z,100411.13
2023-01-29T23:18:50.966Z,100407.63
2023-01-29T23:21:21.410Z,100418.13
2023-01-29T23:23:53.401Z,100406.75
2023-01-29T23:26:40.779Z,100392.78
2023-01-29T23:29:10.973Z,100383.09
2023-01-29T23:31:41.596Z,100380.47
2023-01-29T23:34:14.054Z,100376.97
2023-01-29T23:36:44.464Z,100358.63
2023-01-29T23:39:14.482Z,100344.66
2023-01-29T23:41:45.339Z,100352.44
2023-01-29T23:44:15.235Z,100335.84
2023-01-29T23:46:45.716Z,100328.84
2023-01-29T23:49:17.240Z,100323.59
2023-01-29T23:51:49.055Z,100324.44
2023-01-29T23:54:18.915Z,100318.31
2023-01-29T23:56:49.730Z,100313.09
2023-01-29T23:59:19.612Z,100324.41
